createdAt,value
2023-01-02T07:37:19.520Z,999.90
2023-01-02T07:40:21.503Z,999.90
2023-01-02T07:42:48.070Z,999.90
2023-01-02T07:45:14.738Z,999.90
2023-01-02T07:47:41.331Z,999.90
2023-01-02T07:50:08.286Z,999.90
2023-01-02T07:52:34.878Z,999.90
2023-01-02T07:55:01.637Z,999.90
2023-01-02T07:57:31.460Z,999.90
2023-01-02T07:59:58.466Z,999.90
2023-01-02T08:02:25.207Z,999.90
2023-01-02T08:04:51.844Z,999.90
2023-01-02T08:07:18.566Z,999.90
2023-01-02T08:09:45.151Z,999.90
2023-01-02T08:12:13.053Z,999.90
2023-01-02T08:14:40.235Z,999.90
2023-01-02T08:17:08.183Z,999.90
2023-01-02T08:19:34.913Z,999.90
2023-01-02T08:22:01.605Z,999.90
2023-01-02T08:24:28.167Z,999.90
2023-01-02T08:26:54.819Z,999.90
2023-01-02T08:29:21.484Z,999.90
2023-01-02T08:31:48.117Z,999.90
2023-01-02T08:34:15.271Z,999.90
2023-01-02T08:36:45.409Z,999.90
2023-01-02T08:39:11.960Z,999.90
2023-01-02T08:41:40.543Z,999.90
2023-01-02T08:44:07.933Z,19.38
2023-01-02T08:46:42.374Z,28.63
2023-01-02T08:49:10.279Z,25.38
2023-01-02T08:51:37.066Z,26.58
2023-01-02T08:54:03.901Z,24.55
2023-01-02T08:56:32.438Z,24.55
2023-01-02T08:59:05.308Z,22.65
2023-01-02T09:01:33.279Z,25.15
2023-01-02T09:04:02.668Z,24.30
2023-01-02T09:06:33.485Z,20.10
2023-01-02T09:09:04.419Z,999.90
2023-01-02T09:11:45.222Z,11.23
2023-01-02T09:14:12.003Z,10.93
2023-01-02T09:16:39.869Z,8.35
2023-01-02T09:19:06.585Z,9.32
2023-01-02T09:21:33.411Z,7.78
2023-01-02T09:24:00.160Z,8.80
2023-01-02T09:26:26.858Z,10.30
2023-01-02T09:28:53.477Z,9.30
2023-01-02T09:31:20.671Z,20.40
2023-01-02T09:33:48.152Z,12.48
2023-01-02T09:36:17.888Z,7.63
2023-01-02T09:38:44.577Z,7.63
2023-01-02T09:41:39.413Z,7.90
2023-01-02T09:44:18.238Z,25.90
2023-01-02T09:47:02.662Z,13.45
2023-01-02T09:49:33.854Z,22.77
2023-01-02T09:52:00.469Z,7.30
2023-01-02T09:54:29.983Z,6.60
2023-01-02T09:57:12.639Z,5.80
2023-01-02T10:00:04.580Z,6.43
2023-01-02T10:02:40.347Z,7.32
2023-01-02T10:05:37.432Z,5.88
2023-01-02T10:08:10.059Z,6.15
2023-01-02T10:10:46.464Z,6.10
2023-01-02T10:13:44.279Z,6.25
2023-01-02T10:16:18.352Z,5.30
2023-01-02T10:18:49.673Z,5.35
2023-01-02T10:21:22.942Z,6.45
2023-01-02T10:24:00.363Z,8.38
2023-01-02T10:26:34.327Z,16.65
2023-01-02T10:29:16.158Z,9.73
2023-01-02T10:31:48.698Z,10.13
2023-01-02T10:34:21.241Z,7.85
2023-01-02T10:36:49.298Z,5.93
2023-01-02T10:39:24.739Z,6.20
2023-01-02T10:41:57.525Z,5.70
2023-01-02T10:44:28.817Z,4.80
2023-01-02T10:46:57.092Z,5.38
2023-01-02T10:49:26.150Z,5.10
2023-01-02T10:52:07.361Z,6.03
2023-01-02T10:54:59.512Z,6.15
2023-01-02T10:57:40.153Z,4.20
2023-01-02T11:00:27.774Z,6.05
2023-01-02T11:03:00.459Z,5.35
2023-01-02T11:05:31.530Z,11.30
2023-01-02T11:07:59.035Z,4.53
2023-01-02T11:10:30.022Z,6.07
2023-01-02T11:12:56.867Z,5.15
2023-01-02T11:15:27.110Z,10.05
2023-01-02T11:17:53.946Z,7.05
2023-01-02T11:20:26.648Z,4.80
2023-01-02T11:22:55.859Z,4.53
2023-01-02T11:25:29.586Z,5.40
2023-01-02T11:28:00.790Z,6.80
2023-01-02T11:30:30.142Z,4.97
2023-01-02T11:33:28.201Z,12.52
2023-01-02T11:35:59.392Z,5.22
2023-01-02T11:38:30.753Z,5.53
2023-01-02T11:41:01.048Z,10.70
2023-01-02T11:43:51.903Z,5.88
2023-01-02T11:46:35.664Z,5.97
2023-01-02T11:49:16.397Z,7.38
2023-01-02T11:51:43.595Z,5.25
2023-01-02T11:54:14.729Z,6.22
2023-01-02T11:56:44.407Z,5.45
2023-01-02T11:59:28.464Z,5.75
2023-01-02T12:02:06.051Z,5.38
2023-01-02T12:04:32.805Z,7.20
2023-01-02T12:07:08.812Z,8.55
2023-01-02T12:09:59.990Z,5.53
2023-01-02T12:13:04.450Z,6.07
2023-01-02T12:15:39.973Z,6.20
2023-01-02T12:18:15.332Z,4.97
2023-01-02T12:21:00.482Z,4.65
2023-01-02T12:23:47.244Z,5.55
2023-01-02T12:26:20.532Z,5.55
2023-01-02T12:29:08.811Z,5.80
2023-01-02T12:32:06.148Z,5.80
2023-01-02T12:34:54.727Z,7.55
2023-01-02T12:37:36.525Z,12.02
2023-01-02T12:40:34.875Z,5.63
2023-01-02T12:43:25.941Z,5.65
2023-01-02T12:46:17.199Z,6.78
2023-01-02T12:49:22.104Z,7.65
2023-01-02T12:52:23.228Z,5.55
2023-01-02T12:55:05.038Z,6.45
2023-01-02T12:57:50.491Z,5.60
2023-01-02T13:00:33.344Z,5.00
2023-01-02T13:02:59.961Z,5.65
2023-01-02T13:05:33.744Z,6.90
2023-01-02T13:08:06.826Z,5.45
2023-01-02T13:10:33.997Z,7.30
2023-01-02T13:13:01.593Z,6.40
2023-01-02T13:15:34.695Z,6.78
2023-01-02T13:18:14.061Z,6.65
2023-01-02T13:20:52.542Z,5.68
2023-01-02T13:23:40.409Z,6.40
2023-01-02T13:26:13.029Z,5.15
2023-01-02T13:29:18.858Z,6.07
2023-01-02T13:31:52.882Z,5.00
2023-01-02T13:34:28.059Z,5.57
2023-01-02T13:37:06.504Z,8.80
2023-01-02T13:39:39.028Z,5.43
2023-01-02T13:42:26.487Z,10.93
2023-01-02T13:45:00.322Z,5.97
2023-01-02T13:47:36.620Z,5.25
2023-01-02T13:50:15.774Z,7.57
2023-01-02T13:52:59.696Z,14.82
2023-01-02T13:55:33.362Z,10.43
2023-01-02T13:58:15.072Z,8.45
2023-01-02T14:00:53.444Z,11.68
2023-01-02T14:03:23.999Z,12.23
2023-01-02T14:05:56.932Z,8.02
2023-01-02T14:08:35.897Z,5.57
2023-01-02T14:11:11.034Z,7.20
2023-01-02T14:13:42.153Z,7.90
2023-01-02T14:16:46.383Z,7.07
2023-01-02T14:19:12.922Z,6.53
2023-01-02T14:21:51.475Z,7.30
2023-01-02T14:24:33.300Z,11.18
2023-01-02T14:27:06.371Z,74.63
2023-01-02T14:29:42.382Z,39.60
2023-01-02T14:32:20.147Z,30.67
2023-01-02T14:34:49.461Z,43.65
2023-01-02T14:37:47.438Z,44.67
2023-01-02T14:40:32.933Z,45.83
2023-01-02T14:43:22.197Z,54.65
2023-01-02T14:45:52.220Z,61.13
2023-01-02T14:48:31.219Z,54.55
2023-01-02T14:51:04.091Z,53.00
2023-01-02T14:53:38.304Z,54.40
2023-01-02T14:56:12.178Z,58.25
2023-01-02T14:58:48.248Z,47.95
2023-01-02T15:01:42.163Z,52.42
2023-01-02T15:04:38.972Z,52.17
2023-01-02T15:07:25.427Z,51.17
2023-01-02T15:09:56.861Z,59.83
2023-01-02T15:12:43.513Z,62.00
2023-01-02T15:15:15.406Z,58.75
2023-01-02T15:17:44.129Z,64.75
2023-01-02T15:20:19.325Z,67.30
2023-01-02T15:22:46.999Z,94.60
2023-01-02T15:25:15.255Z,90.00
2023-01-02T15:27:54.549Z,55.72
2023-01-02T15:30:38.807Z,42.00
2023-01-02T15:33:24.681Z,55.28
2023-01-02T15:36:03.831Z,41.95
2023-01-02T15:38:31.345Z,44.92
2023-01-02T15:40:58.385Z,47.22
2023-01-02T15:43:46.829Z,42.88
2023-01-02T15:46:15.298Z,38.50
2023-01-02T15:48:43.993Z,39.33
2023-01-02T15:51:40.501Z,39.95
2023-01-02T15:54:13.595Z,41.72
2023-01-02T15:56:40.985Z,46.83
2023-01-02T15:59:33.830Z,44.05
2023-01-02T16:02:02.741Z,44.75
2023-01-02T16:04:32.401Z,45.08
2023-01-02T16:07:16.261Z,34.28
2023-01-02T16:09:55.408Z,35.10
2023-01-02T16:12:23.219Z,35.70
2023-01-02T16:14:55.607Z,32.22
2023-01-02T16:17:27.691Z,64.05
2023-01-02T16:19:58.925Z,68.40
2023-01-02T16:22:36.007Z,44.45
2023-01-02T16:25:08.685Z,32.90
2023-01-02T16:27:48.414Z,30.50
2023-01-02T16:30:42.895Z,29.48
2023-01-02T16:33:36.225Z,30.27
2023-01-02T16:38:55.821Z,29.90
2023-01-02T16:41:37.477Z,33.08
2023-01-02T16:44:12.497Z,33.90
2023-01-02T16:46:39.956Z,37.65
2023-01-02T16:49:07.558Z,35.95
2023-01-02T16:51:34.599Z,36.72
2023-01-02T16:54:01.166Z,38.08
2023-01-02T16:56:27.759Z,34.28
2023-01-02T16:58:54.349Z,31.73
2023-01-02T17:01:23.784Z,29.35
2023-01-02T17:03:50.855Z,26.48
2023-01-02T17:06:20.536Z,23.00
2023-01-02T17:08:48.198Z,26.40
2023-01-02T17:11:17.219Z,22.27
2023-01-02T17:13:44.493Z,20.58
2023-01-02T17:16:11.246Z,24.38
2023-01-02T17:18:37.990Z,27.73
2023-01-02T17:21:04.876Z,28.17
2023-01-02T17:23:31.474Z,30.38
2023-01-02T17:25:58.362Z,30.67
2023-01-02T17:28:24.967Z,28.45
2023-01-02T17:30:51.694Z,27.73
2023-01-02T17:33:19.599Z,26.98
2023-01-02T17:35:47.191Z,26.20
2023-01-02T17:38:14.418Z,29.05
2023-01-02T17:40:41.040Z,31.50
2023-01-02T17:43:07.586Z,30.35
2023-01-02T17:45:34.218Z,28.05
2023-01-02T17:48:07.864Z,31.25
2023-01-02T17:50:38.041Z,25.30
2023-01-02T17:53:04.612Z,25.60
2023-01-02T17:55:31.238Z,29.23
2023-01-02T17:58:00.436Z,44.00
2023-01-02T18:00:27.457Z,185.98
2023-01-02T18:02:54.247Z,165.65
2023-01-02T18:05:21.823Z,112.15
2023-01-02T18:07:48.424Z,97.47
2023-01-02T18:10:19.905Z,85.25
2023-01-02T18:12:47.462Z,85.22
2023-01-02T18:15:15.792Z,68.28
2023-01-02T18:17:42.548Z,47.03
2023-01-02T18:20:14.212Z,35.88
2023-01-02T18:22:48.546Z,26.83
2023-01-02T18:25:19.317Z,24.95
2023-01-02T18:27:47.277Z,44.70
2023-01-02T18:30:18.120Z,59.97
2023-01-02T18:32:45.072Z,39.90
2023-01-02T18:38:35.074Z,33.28
2023-01-02T18:41:17.322Z,32.97
2023-01-02T18:43:45.711Z,32.70
2023-01-02T18:46:16.556Z,30.52
2023-01-02T18:48:43.301Z,30.58
2023-01-02T18:51:18.448Z,34.15
2023-01-02T18:53:57.012Z,28.63
2023-01-02T18:56:30.665Z,25.60
2023-01-02T18:59:06.140Z,23.60
2023-01-02T19:01:39.582Z,22.27
2023-01-02T19:04:18.883Z,24.48
2023-01-02T19:06:54.747Z,24.45
2023-01-02T19:09:34.162Z,22.02
2023-01-02T19:12:37.632Z,18.42
2023-01-02T19:15:40.778Z,15.88
2023-01-02T19:18:22.393Z,15.98
2023-01-02T19:21:06.807Z,16.80
2023-01-02T19:23:42.339Z,19.30
2023-01-02T19:26:38.116Z,19.67
2023-01-02T19:29:10.454Z,21.27
2023-01-02T19:31:42.966Z,20.70
2023-01-02T19:34:28.231Z,24.57
2023-01-02T19:37:19.295Z,41.33
2023-01-02T19:39:52.898Z,50.55
2023-01-02T19:42:20.744Z,43.60
2023-01-02T19:45:05.158Z,44.67
2023-01-02T19:47:34.731Z,41.30
2023-01-02T19:50:02.165Z,30.58
2023-01-02T19:52:29.773Z,34.60
2023-01-02T19:54:56.591Z,33.42
2023-01-02T19:57:23.958Z,29.73
2023-01-02T19:59:52.282Z,28.65
2023-01-02T20:02:23.042Z,27.25
2023-01-02T20:04:52.457Z,24.65
2023-01-02T20:07:20.307Z,28.48
2023-01-02T20:09:46.970Z,28.65
2023-01-02T20:12:32.186Z,26.10
2023-01-02T20:15:01.498Z,30.88
2023-01-02T20:17:28.789Z,20.30
2023-01-02T20:19:56.354Z,20.80
2023-01-02T20:22:22.950Z,20.45
2023-01-02T20:24:49.541Z,18.30
2023-01-02T20:27:17.030Z,19.33
2023-01-02T20:29:44.034Z,19.73
2023-01-02T20:32:10.646Z,23.50
2023-01-02T20:34:37.349Z,25.60
2023-01-02T20:37:04.028Z,27.85
2023-01-02T20:39:30.804Z,29.45
2023-01-02T20:41:57.414Z,25.35
2023-01-02T20:44:24.044Z,23.50
2023-01-02T20:46:50.699Z,21.20
2023-01-02T20:49:17.422Z,23.73
2023-01-02T20:51:44.125Z,20.52
2023-01-02T20:54:11.636Z,17.65
2023-01-02T20:56:38.214Z,18.60
2023-01-02T20:59:04.846Z,24.05
2023-01-02T21:01:32.107Z,27.52
2023-01-02T21:03:58.843Z,27.67
2023-01-02T21:06:25.642Z,30.23
2023-01-02T21:08:52.218Z,32.20
2023-01-02T21:11:18.862Z,30.38
2023-01-02T21:13:45.507Z,34.78
2023-01-02T21:16:12.151Z,39.05
2023-01-02T21:18:40.660Z,39.88
2023-01-02T21:21:11.007Z,34.67
2023-01-02T21:23:39.823Z,31.25
2023-01-02T21:26:08.411Z,26.70
2023-01-02T21:28:35.943Z,29.45
2023-01-02T21:31:02.817Z,33.00
2023-01-02T21:33:29.990Z,34.03
2023-01-02T21:36:00.123Z,30.30
2023-01-02T21:38:27.995Z,34.60
2023-01-02T21:40:55.127Z,38.67
2023-01-02T21:43:22.618Z,31.83
2023-01-02T21:45:49.993Z,32.00
2023-01-02T21:48:16.704Z,28.70
2023-01-02T21:50:43.256Z,36.17
2023-01-02T21:53:09.887Z,38.85
2023-01-02T21:55:36.457Z,32.97
2023-01-02T21:58:12.832Z,33.83
2023-01-02T22:00:39.805Z,30.50
2023-01-02T22:03:06.518Z,20.50
2023-01-02T22:05:33.227Z,23.63
2023-01-02T22:07:59.930Z,26.92
2023-01-02T22:10:26.848Z,27.65
2023-01-02T22:12:53.581Z,32.15
2023-01-02T22:15:20.222Z,35.72
2023-01-02T22:17:46.836Z,30.02
2023-01-02T22:20:13.588Z,26.10
2023-01-02T22:22:40.252Z,23.55
2023-01-02T22:25:07.639Z,24.38
2023-01-02T22:27:34.624Z,22.92
2023-01-02T22:32:49.109Z,25.00
2023-01-02T22:35:15.857Z,34.35
2023-01-02T22:37:42.628Z,32.28
2023-01-02T22:40:09.847Z,34.58
2023-01-02T22:43:04.396Z,36.33
2023-01-02T22:45:37.034Z,36.67
2023-01-02T22:48:07.496Z,31.52
2023-01-02T22:50:41.755Z,25.35
2023-01-02T22:53:19.120Z,23.88
2023-01-02T22:55:46.442Z,21.60
2023-01-02T22:58:13.328Z,20.73
2023-01-02T23:00:40.193Z,20.42
2023-01-02T23:03:14.505Z,34.13
2023-01-02T23:05:41.869Z,39.05
2023-01-02T23:08:08.977Z,33.63
2023-01-02T23:10:35.643Z,24.55
2023-01-02T23:13:02.370Z,26.20
2023-01-02T23:15:28.987Z,26.52
2023-01-02T23:18:14.389Z,23.65
2023-01-02T23:20:41.024Z,25.95
2023-01-02T23:23:07.737Z,23.30
2023-01-02T23:25:34.513Z,22.45
2023-01-02T23:28:01.092Z,24.02
2023-01-02T23:30:27.790Z,21.75
2023-01-02T23:32:54.317Z,22.45
2023-01-02T23:35:20.931Z,23.60
2023-01-02T23:37:47.510Z,24.83
2023-01-02T23:40:14.190Z,25.13
2023-01-02T23:42:40.766Z,24.35
2023-01-02T23:45:07.729Z,25.58
2023-01-02T23:47:34.309Z,24.60
2023-01-02T23:50:00.900Z,22.38
2023-01-02T23:52:27.461Z,22.25
2023-01-02T23:54:54.033Z,21.77
2023-01-02T23:57:20.602Z,21.70
2023-01-02T23:59:47.219Z,20.50
